createdAt,value
2022-10-17T00:08:42.274Z,101360.16
2022-10-17T00:18:43.870Z,101364.38
2022-10-17T00:28:49.022Z,101363.00
2022-10-17T00:38:52.917Z,101357.63
2022-10-17T00:48:55.855Z,101362.22
2022-10-17T00:58:58.188Z,101368.81
2022-10-17T01:08:59.872Z,101364.09
2022-10-17T01:19:31.801Z,101352.84
2022-10-17T01:29:51.233Z,101345.81
2022-10-17T01:39:54.859Z,101327.72
2022-10-17T01:49:59.632Z,101330.28
2022-10-17T02:00:02.904Z,101333.13
2022-10-17T02:10:09.316Z,101318.94
2022-10-17T02:20:26.155Z,101324.78
2022-10-17T02:30:36.931Z,101326.06
2022-10-17T02:40:39.927Z,101336.28
2022-10-17T02:50:44.410Z,101327.00
2022-10-17T03:00:46.024Z,101319.63
2022-10-17T03:10:48.108Z,101332.72
2022-10-17T03:20:49.696Z,101346.84
2022-10-17T03:30:51.271Z,101391.97
2022-10-17T03:40:56.382Z,101396.81
2022-10-17T03:51:01.913Z,101389.44
2022-10-17T04:01:04.324Z,101398.41
2022-10-17T04:11:07.362Z,101424.66
2022-10-17T04:21:11.743Z,101409.44
2022-10-17T04:31:14.478Z,101402.53
2022-10-17T04:41:17.341Z,101395.31
2022-10-17T04:51:21.801Z,101393.13
2022-10-17T05:01:26.681Z,101395.00
2022-10-17T05:11:28.942Z,101391.97
2022-10-17T05:21:30.759Z,101399.84
2022-10-17T05:31:32.395Z,101419.34
2022-10-17T05:41:34.108Z,101414.38
2022-10-17T05:51:35.714Z,101415.44
2022-10-17T06:01:37.324Z,101435.31
2022-10-17T06:11:39.012Z,101447.59
2022-10-17T06:21:40.552Z,101453.91
2022-10-17T06:31:42.307Z,101450.72
2022-10-17T06:41:44.762Z,101462.00
2022-10-17T06:51:47.530Z,101481.56
2022-10-17T07:01:49.308Z,101482.78
2022-10-17T07:11:50.932Z,101475.06
2022-10-17T07:21:53.142Z,101472.91
2022-10-17T07:31:54.704Z,101496.81
2022-10-17T07:41:56.267Z,101488.09
2022-10-17T07:51:57.825Z,101465.59
2022-10-17T08:01:59.710Z,101459.75
2022-10-17T08:12:01.275Z,101457.06
2022-10-17T08:22:02.928Z,101465.72
2022-10-17T08:32:07.656Z,101442.50
2022-10-17T08:42:29.525Z,101444.84
2022-10-17T08:52:40.346Z,101425.75
2022-10-17T09:03:08.177Z,101418.53
2022-10-17T09:13:19.014Z,101434.41
2022-10-17T09:23:30.416Z,101444.53
2022-10-17T09:33:55.647Z,101424.19
2022-10-17T09:43:58.376Z,101430.91
2022-10-17T09:54:02.114Z,101422.34
2022-10-17T10:04:14.530Z,101394.47
2022-10-17T10:14:28.250Z,101396.19
2022-10-17T10:24:31.184Z,101385.00
2022-10-17T10:34:35.910Z,101391.38
2022-10-17T10:44:39.456Z,101396.59
2022-10-17T10:54:45.083Z,101392.28
2022-10-17T11:15:57.925Z,101378.06
2022-10-17T11:26:26.290Z,101350.91
2022-10-17T11:36:34.667Z,101345.19
2022-10-17T11:46:38.429Z,101337.53
2022-10-17T11:56:47.478Z,101316.94
2022-10-17T12:06:57.352Z,101329.94
2022-10-17T12:17:06.629Z,101318.81
2022-10-17T12:27:47.884Z,101296.63
2022-10-17T12:37:51.600Z,101301.13
2022-10-17T12:47:56.300Z,101308.97
2022-10-17T12:58:04.584Z,101296.38
2022-10-17T13:08:14.318Z,101294.16
2022-10-17T13:18:25.083Z,101290.06
2022-10-17T13:28:30.373Z,101284.53
2022-10-17T13:49:55.418Z,101284.78
2022-10-17T14:10:33.863Z,101297.78
2022-10-17T14:31:10.775Z,101288.84
2022-10-17T14:41:41.921Z,101286.88
2022-10-17T14:52:07.763Z,101272.00
2022-10-17T15:02:10.032Z,101267.78
2022-10-17T15:12:16.375Z,101293.31
2022-10-17T15:22:18.519Z,101293.78
2022-10-17T15:32:20.016Z,101290.38
2022-10-17T15:42:29.321Z,101300.13
2022-10-17T15:52:30.889Z,101313.44
2022-10-17T16:02:33.358Z,101327.75
2022-10-17T16:12:41.791Z,101321.28
2022-10-17T16:22:47.370Z,101318.03
2022-10-17T16:32:49.293Z,101313.38
2022-10-17T16:42:50.917Z,101310.69
2022-10-17T16:52:52.955Z,101307.47
2022-10-17T17:02:54.611Z,101307.84
2022-10-17T17:12:57.272Z,101305.75
2022-10-17T17:22:59.513Z,101303.13
2022-10-17T17:33:01.199Z,101304.94
2022-10-17T17:43:02.842Z,101295.03
2022-10-17T17:53:05.474Z,101294.56
2022-10-17T18:03:07.340Z,101286.91
2022-10-17T18:13:08.852Z,101293.06
2022-10-17T18:23:11.027Z,101302.69
2022-10-17T18:33:12.635Z,101291.59
2022-10-17T18:43:14.176Z,101299.53
2022-10-17T18:53:15.663Z,101299.19
2022-10-17T19:03:17.741Z,101292.44
2022-10-17T19:13:21.546Z,101298.47
2022-10-17T19:23:23.368Z,101301.78
2022-10-17T19:33:25.130Z,101302.72
2022-10-17T19:43:26.873Z,101308.75
2022-10-17T19:53:29.643Z,101307.09
2022-10-17T20:03:31.334Z,101298.41
2022-10-17T20:13:34.369Z,101283.50
2022-10-17T20:23:36.168Z,101294.72
2022-10-17T20:33:37.803Z,101291.88
2022-10-17T20:43:39.366Z,101284.69
2022-10-17T20:53:40.953Z,101288.16
2022-10-17T21:03:46.369Z,101302.72
2022-10-17T21:13:53.347Z,101307.28
2022-10-17T21:23:56.634Z,101310.84
2022-10-17T21:34:00.436Z,101303.81
2022-10-17T21:44:04.336Z,101294.47
2022-10-17T21:54:06.140Z,101297.06
2022-10-17T22:04:10.253Z,101282.06
2022-10-17T22:14:14.501Z,101281.84
2022-10-17T22:24:16.932Z,101276.97
2022-10-17T22:34:18.473Z,101274.84
2022-10-17T22:44:20.042Z,101281.69
2022-10-17T22:54:21.571Z,101273.63
2022-10-17T23:04:23.063Z,101266.25
2022-10-17T23:14:24.566Z,101254.97
2022-10-17T23:24:26.216Z,101261.59
2022-10-17T23:34:28.744Z,101270.63
2022-10-17T23:44:30.209Z,101263.03
2022-10-17T23:54:31.894Z,101263.16
